Time;durP1;ratioP1;P1;durP2;ratioP2;P2;SDS_P1;SDS_P2;PMS_P1;PMS_P2;Temp;Humidity;BMP_temperature;BMP_pressure;BME280_temperature;BME280_humidity;BME280_pressure;Samples;Min_cycle;Max_cycle;Signal;HPM_P1;HPM_P2
2024/01/30 00:01:04;;;;;;;18.20;11.50;;;12.50;99.90;;;;;;4264865;27;20122;-59
2024/01/30 00:03:06;;;;;;;15.57;10.55;;;12.50;99.90;;;;;;4246648;27;20138;-58
2024/01/30 00:05:09;;;;;;;19.83;11.65;;;12.50;99.90;;;;;;4265071;27;20042;-59
2024/01/30 00:07:11;;;;;;;14.80;9.55;;;12.50;99.90;;;;;;4264571;27;20481;-59
2024/01/30 00:09:14;;;;;;;18.30;10.00;;;12.50;99.90;;;;;;4264887;27;20054;-60
2024/01/30 00:11:16;;;;;;;13.90;9.57;;;12.50;99.90;;;;;;4265326;27;20038;-60
2024/01/30 00:13:19;;;;;;;17.73;9.73;;;12.50;99.90;;;;;;4265961;27;20475;-65
2024/01/30 00:15:23;;;;;;;17.08;9.25;;;12.40;99.90;;;;;;4265944;27;20069;-58
2024/01/30 00:17:26;;;;;;;11.20;8.50;;;12.40;99.90;;;;;;4264260;27;20064;-58
2024/01/30 00:19:28;;;;;;;15.10;9.05;;;12.50;99.90;;;;;;4264574;27;20058;-59
2024/01/30 00:21:30;;;;;;;12.77;8.20;;;12.50;99.90;;;;;;4264047;27;20030;-59
2024/01/30 00:23:32;;;;;;;11.70;8.70;;;12.60;99.90;;;;;;4264865;27;20446;-59
2024/01/30 00:25:34;;;;;;;14.02;9.23;;;12.50;99.90;;;;;;4264920;27;20130;-59
2024/01/30 00:27:36;;;;;;;15.45;9.10;;;12.50;99.90;;;;;;4264497;27;20045;-58
2024/01/30 00:29:38;;;;;;;12.88;8.63;;;12.60;99.90;;;;;;4264714;27;20046;-59
2024/01/30 00:31:43;;;;;;;15.98;9.05;;;12.60;99.90;;;;;;4264679;27;20039;-59
2024/01/30 00:33:46;;;;;;;12.70;8.85;;;12.60;99.90;;;;;;4264583;27;20111;-59
2024/01/30 00:35:48;;;;;;;13.90;7.80;;;12.70;99.90;;;;;;4261305;27;20047;-59
2024/01/30 00:37:50;;;;;;;15.70;8.82;;;12.70;99.90;;;;;;4258826;27;20117;-59
2024/01/30 00:39:52;;;;;;;12.07;8.80;;;12.70;99.90;;;;;;4246207;28;20047;-59
2024/01/30 00:41:54;;;;;;;11.65;8.10;;;12.70;99.90;;;;;;4264353;27;20134;-59
2024/01/30 00:43:56;;;;;;;14.65;8.93;;;12.70;99.90;;;;;;4260872;27;20053;-59
2024/01/30 00:45:58;;;;;;;15.57;8.88;;;12.70;99.90;;;;;;4264834;27;20489;-59
2024/01/30 00:48:02;;;;;;;12.30;8.48;;;12.70;99.90;;;;;;4264465;27;20038;-59
2024/01/30 00:50:05;;;;;;;12.50;8.48;;;12.70;99.90;;;;;;4263958;27;20051;-59
2024/01/30 00:52:07;;;;;;;12.27;8.48;;;12.60;99.90;;;;;;4264280;27;20070;-59
2024/01/30 00:54:09;;;;;;;14.40;8.63;;;12.70;99.90;;;;;;4264011;27;20046;-59
2024/01/30 00:56:13;;;;;;;10.88;8.23;;;12.70;99.90;;;;;;4264444;27;20088;-60
2024/01/30 00:58:15;;;;;;;13.45;8.57;;;12.70;99.90;;;;;;4264320;27;20079;-59
2024/01/30 01:00:17;;;;;;;12.90;8.68;;;12.70;99.90;;;;;;4264211;27;20046;-58
2024/01/30 01:02:19;;;;;;;17.42;9.43;;;12.80;99.90;;;;;;4264336;27;20046;-59
2024/01/30 01:04:23;;;;;;;10.18;7.43;;;12.70;99.90;;;;;;4264019;27;20078;-59
2024/01/30 01:06:25;;;;;;;15.07;8.82;;;12.70;99.90;;;;;;4247339;28;20071;-59
2024/01/30 01:08:27;;;;;;;11.90;7.20;;;12.70;99.90;;;;;;4254801;27;20043;-59
2024/01/30 01:10:29;;;;;;;13.73;8.23;;;12.70;99.90;;;;;;4264762;27;20042;-59
2024/01/30 01:12:31;;;;;;;12.60;7.95;;;12.70;99.90;;;;;;4264533;27;20042;-59
2024/01/30 01:14:33;;;;;;;13.75;8.80;;;12.70;99.90;;;;;;4264568;27;20082;-61
2024/01/30 01:16:35;;;;;;;13.27;8.65;;;12.60;99.90;;;;;;4265967;27;20067;-59
2024/01/30 01:18:38;;;;;;;13.13;7.95;;;12.60;99.90;;;;;;4247794;27;20046;-59
2024/01/30 01:20:41;;;;;;;10.05;7.55;;;12.50;99.90;;;;;;4264024;27;20049;-59
2024/01/30 01:22:43;;;;;;;15.98;9.00;;;12.50;99.90;;;;;;4264402;27;20058;-59
2024/01/30 01:24:45;;;;;;;15.18;8.30;;;12.50;99.90;;;;;;4263984;27;20050;-59
2024/01/30 01:26:47;;;;;;;12.48;8.77;;;12.40;99.90;;;;;;4264296;27;20078;-59
2024/01/30 01:28:50;;;;;;;14.80;9.18;;;12.40;99.90;;;;;;4264259;27;20050;-59
2024/01/30 01:30:52;;;;;;;11.55;9.23;;;12.40;99.90;;;;;;4267469;27;20039;-59
2024/01/30 01:33:00;;;;;;;12.80;8.40;;;12.40;99.90;;;;;;4267413;27;20043;-59
2024/01/30 01:35:03;;;;;;;11.73;8.50;;;12.40;99.90;;;;;;4266702;27;20190;-59
2024/01/30 01:37:07;;;;;;;10.95;7.85;;;12.40;99.90;;;;;;4281636;27;20047;-59
2024/01/30 01:39:10;;;;;;;14.18;9.43;;;12.40;99.90;;;;;;4279559;27;20046;-58
2024/01/30 01:41:12;;;;;;;10.55;8.27;;;12.40;99.90;;;;;;4267278;27;20454;-59
2024/01/30 01:43:14;;;;;;;11.95;8.82;;;12.40;99.90;;;;;;4267145;27;20089;-59
2024/01/30 01:45:16;;;;;;;12.50;7.88;;;12.40;99.90;;;;;;4266958;27;20038;-58
2024/01/30 01:47:18;;;;;;;14.88;8.48;;;12.40;99.90;;;;;;4267139;27;20525;-59
2024/01/30 01:49:24;;;;;;;12.18;8.45;;;12.40;99.90;;;;;;4266707;27;20411;-59
2024/01/30 01:51:28;;;;;;;15.88;8.15;;;12.40;99.90;;;;;;4267227;27;20046;-58
2024/01/30 01:53:32;;;;;;;14.83;8.63;;;12.40;99.90;;;;;;4267135;27;20058;-59
2024/01/30 01:55:35;;;;;;;12.55;7.97;;;12.40;99.90;;;;;;4266981;27;20384;-59
2024/01/30 01:57:40;;;;;;;12.02;8.25;;;12.40;99.90;;;;;;4268004;27;20043;-60
2024/01/30 01:59:42;;;;;;;12.32;8.40;;;12.50;99.90;;;;;;4267066;27;20078;-59
2024/01/30 02:01:46;;;;;;;13.82;8.55;;;12.40;99.90;;;;;;4266792;27;20117;-59
2024/01/30 02:03:48;;;;;;;11.85;7.97;;;12.40;99.90;;;;;;4266647;27;20481;-59
2024/01/30 02:05:51;;;;;;;12.43;8.57;;;12.40;99.90;;;;;;4266826;27;20393;-59
2024/01/30 02:07:54;;;;;;;14.02;9.02;;;12.40;99.90;;;;;;4266967;27;20057;-58
2024/01/30 02:09:58;;;;;;;14.63;8.98;;;12.30;99.90;;;;;;4266551;27;20068;-59
2024/01/30 02:12:00;;;;;;;13.65;8.00;;;12.30;99.90;;;;;;4266834;27;20047;-59
2024/01/30 02:14:04;;;;;;;12.05;8.57;;;12.40;99.90;;;;;;4266804;27;20042;-59
2024/01/30 02:16:06;;;;;;;15.15;8.95;;;12.40;99.90;;;;;;4266345;27;20134;-59
2024/01/30 02:18:08;;;;;;;13.35;9.40;;;12.40;99.90;;;;;;4266360;27;20066;-58
2024/01/30 02:20:11;;;;;;;13.68;9.77;;;12.30;99.90;;;;;;4266548;27;20047;-59
2024/01/30 02:22:15;;;;;;;12.32;8.50;;;12.20;99.90;;;;;;4262853;27;20035;-59
2024/01/30 02:24:17;;;;;;;13.55;8.93;;;12.20;99.90;;;;;;4266418;27;20078;-57
2024/01/30 02:26:20;;;;;;;12.43;8.27;;;12.20;99.90;;;;;;4266324;27;20118;-59
2024/01/30 02:28:22;;;;;;;17.50;8.75;;;12.10;99.90;;;;;;4266645;27;20043;-58
2024/01/30 02:30:24;;;;;;;14.55;8.88;;;12.10;99.90;;;;;;4266498;27;20121;-58
2024/01/30 02:32:26;;;;;;;15.30;8.45;;;12.10;99.90;;;;;;4266219;27;20047;-58
2024/01/30 02:34:28;;;;;;;12.30;8.07;;;12.10;99.90;;;;;;4267595;27;20050;-61
2024/01/30 02:36:30;;;;;;;18.50;8.60;;;12.00;99.90;;;;;;4267268;27;20043;-58
2024/01/30 02:38:34;;;;;;;9.48;8.10;;;12.00;99.90;;;;;;4266966;27;20070;-58
2024/01/30 02:40:36;;;;;;;13.63;7.95;;;12.10;99.90;;;;;;4266155;27;20099;-57
2024/01/30 02:42:39;;;;;;;12.95;8.30;;;12.20;99.90;;;;;;4266550;27;20373;-58
2024/01/30 02:44:41;;;;;;;13.32;7.65;;;12.20;99.90;;;;;;4249224;27;20125;-65
2024/01/30 02:46:43;;;;;;;12.63;7.13;;;12.20;99.90;;;;;;4256536;27;20064;-58
2024/01/30 02:48:45;;;;;;;11.20;7.72;;;12.30;99.90;;;;;;4266266;27;20043;-59
2024/01/30 02:50:47;;;;;;;14.02;8.15;;;12.30;99.90;;;;;;4266432;27;20049;-58
2024/01/30 02:52:49;;;;;;;11.60;7.50;;;12.40;99.90;;;;;;4247427;27;20047;-59
2024/01/30 02:54:53;;;;;;;11.73;7.45;;;12.30;99.90;;;;;;4266113;27;20047;-58
2024/01/30 02:56:55;;;;;;;15.15;7.13;;;12.30;99.90;;;;;;4266112;27;20042;-59
2024/01/30 02:58:57;;;;;;;10.98;6.20;;;12.40;99.90;;;;;;4265842;27;20038;-59
2024/01/30 03:00:59;;;;;;;9.93;6.13;;;12.40;99.90;;;;;;4265796;27;20091;-59
2024/01/30 03:03:02;;;;;;;9.85;6.28;;;12.40;99.90;;;;;;4265842;27;20392;-58
2024/01/30 03:05:05;;;;;;;10.48;6.97;;;12.50;99.90;;;;;;4266063;27;20047;-59
2024/01/30 03:07:07;;;;;;;10.45;6.53;;;12.50;99.90;;;;;;4265935;27;20064;-59
2024/01/30 03:09:09;;;;;;;11.07;6.00;;;12.50;99.90;;;;;;4265590;27;20042;-59
2024/01/30 03:11:13;;;;;;;9.70;5.68;;;12.50;99.90;;;;;;4265701;27;20107;-59
2024/01/30 03:13:15;;;;;;;10.43;6.15;;;12.60;99.90;;;;;;4268265;27;20095;-61
2024/01/30 03:15:17;;;;;;;11.95;6.47;;;12.60;99.90;;;;;;4265958;27;20050;-59
2024/01/30 03:17:19;;;;;;;14.90;6.13;;;12.60;99.90;;;;;;4265634;27;20035;-59
2024/01/30 03:19:21;;;;;;;8.18;4.85;;;12.50;99.90;;;;;;4265726;27;20046;-59
2024/01/30 03:21:24;;;;;;;10.63;5.03;;;12.50;99.90;;;;;;4265755;27;20122;-58
2024/01/30 03:23:26;;;;;;;10.30;5.85;;;12.50;99.90;;;;;;4265475;27;20042;-59
2024/01/30 03:25:28;;;;;;;8.65;5.32;;;12.60;99.90;;;;;;4265619;27;20049;-59
2024/01/30 03:27:31;;;;;;;10.20;5.30;;;12.60;99.90;;;;;;4265255;27;20070;-65
2024/01/30 03:29:33;;;;;;;13.95;5.50;;;12.60;99.90;;;;;;4266261;27;20038;-59
2024/01/30 03:31:36;;;;;;;8.13;4.72;;;12.60;99.90;;;;;;4267510;27;20078;-59
2024/01/30 03:33:38;;;;;;;10.70;5.65;;;12.50;99.90;;;;;;4266287;27;20125;-59
2024/01/30 03:35:41;;;;;;;8.25;4.90;;;12.60;99.90;;;;;;4263618;27;20394;-59
2024/01/30 03:37:43;;;;;;;10.65;5.60;;;12.60;99.90;;;;;;4231631;27;20050;-60
2024/01/30 03:39:45;;;;;;;7.55;5.43;;;12.70;99.90;;;;;;4265604;27;20072;-59
2024/01/30 03:41:48;;;;;;;11.40;5.40;;;12.50;99.90;;;;;;4267194;27;20118;-60
2024/01/30 03:43:51;;;;;;;8.07;5.32;;;12.50;99.90;;;;;;4267537;27;20043;-62
2024/01/30 03:45:53;;;;;;;9.25;5.63;;;12.50;99.90;;;;;;4266926;27;20053;-59
2024/01/30 03:47:58;;;;;;;11.95;6.13;;;12.50;99.90;;;;;;4265669;27;20434;-59
2024/01/30 03:50:00;;;;;;;6.97;5.35;;;12.40;99.90;;;;;;4264407;27;20494;-59
2024/01/30 03:52:03;;;;;;;10.82;6.20;;;12.30;99.90;;;;;;4265082;27;20053;-59
2024/01/30 03:54:05;;;;;;;10.50;6.40;;;12.30;99.90;;;;;;4265324;27;20054;-59
2024/01/30 03:56:08;;;;;;;15.05;5.38;;;12.30;99.90;;;;;;4266489;27;20039;-60
2024/01/30 03:58:10;;;;;;;8.02;4.97;;;12.20;99.90;;;;;;4265528;27;20068;-59
2024/01/30 04:00:15;;;;;;;9.55;5.40;;;12.20;99.90;;;;;;4264767;27;20054;-59
2024/01/30 04:02:17;;;;;;;9.23;5.18;;;12.10;99.90;;;;;;4247901;27;20047;-59
2024/01/30 04:04:20;;;;;;;13.40;5.70;;;12.20;99.90;;;;;;4255516;27;20042;-59
2024/01/30 04:06:22;;;;;;;7.72;5.20;;;12.20;99.90;;;;;;4265291;27;20047;-59
2024/01/30 04:08:24;;;;;;;8.85;4.65;;;12.20;99.90;;;;;;4265061;27;20051;-59
2024/01/30 04:10:27;;;;;;;11.65;5.70;;;12.20;99.90;;;;;;4246449;27;20039;-59
2024/01/30 04:12:29;;;;;;;9.10;5.13;;;12.20;99.90;;;;;;4265163;27;20046;-59
2024/01/30 04:14:31;;;;;;;9.52;5.28;;;12.20;99.90;;;;;;4264492;27;20633;-59
2024/01/30 04:16:34;;;;;;;9.10;4.63;;;12.30;99.90;;;;;;4264697;27;20064;-59
2024/01/30 04:18:36;;;;;;;14.45;5.57;;;12.30;99.90;;;;;;4264725;27;20103;-59
2024/01/30 04:20:39;;;;;;;8.05;5.13;;;12.20;99.90;;;;;;4264568;27;20473;-59
2024/01/30 04:22:41;;;;;;;8.32;4.68;;;12.20;99.90;;;;;;4264836;27;20042;-58
2024/01/30 04:24:43;;;;;;;9.65;4.53;;;12.20;99.90;;;;;;4264841;27;20375;-59
2024/01/30 04:26:45;;;;;;;9.77;4.75;;;12.20;99.90;;;;;;4267135;27;20051;-60
2024/01/30 04:28:47;;;;;;;11.40;5.13;;;12.20;99.90;;;;;;4266759;27;20047;-59
2024/01/30 04:30:50;;;;;;;8.13;4.97;;;12.20;99.90;;;;;;4266009;27;20525;-64
2024/01/30 04:32:53;;;;;;;10.18;4.90;;;12.30;99.90;;;;;;4264838;27;20065;-58
2024/01/30 04:34:55;;;;;;;13.95;5.95;;;12.30;99.90;;;;;;4264531;27;20042;-58
2024/01/30 04:36:57;;;;;;;7.63;4.97;;;12.30;99.90;;;;;;4264781;27;20091;-59
2024/01/30 04:38:59;;;;;;;7.55;4.95;;;12.30;99.90;;;;;;4264451;27;20043;-58
2024/01/30 04:41:02;;;;;;;10.30;4.95;;;12.30;99.90;;;;;;4264401;27;20042;-59
2024/01/30 04:43:04;;;;;;;9.38;5.50;;;12.40;99.90;;;;;;4264357;27;20114;-59
2024/01/30 04:45:07;;;;;;;9.75;5.20;;;12.40;99.90;;;;;;4264448;27;20055;-59
2024/01/30 04:47:11;;;;;;;9.27;5.05;;;12.50;99.90;;;;;;4264229;27;20054;-59
2024/01/30 04:49:15;;;;;;;6.15;3.72;;;12.60;99.90;;;;;;4264660;27;20038;-59
2024/01/30 04:51:17;;;;;;;7.93;5.45;;;12.50;99.90;;;;;;4264391;27;20074;-58
2024/01/30 04:53:19;;;;;;;11.75;4.82;;;12.50;99.90;;;;;;4246180;28;20055;-59
2024/01/30 04:55:21;;;;;;;6.93;4.53;;;12.40;99.90;;;;;;4264538;27;20615;-58
2024/01/30 04:57:24;;;;;;;10.10;5.38;;;12.50;99.90;;;;;;4260834;27;20065;-58
2024/01/30 04:59:26;;;;;;;13.65;5.50;;;12.50;99.90;;;;;;4265408;27;20066;-58
2024/01/30 05:01:28;;;;;;;7.97;5.07;;;12.50;99.90;;;;;;4265568;27;20041;-58
2024/01/30 05:03:33;;;;;;;8.68;4.72;;;12.50;99.90;;;;;;4267981;27;20103;-59
2024/01/30 05:05:37;;;;;;;;;;;12.50;99.90;;;;;;4269075;27;20103;-58
2024/01/30 05:07:41;;;;;;;7.95;5.13;;;12.60;99.90;;;;;;4268450;27;19919;-57
2024/01/30 05:09:43;;;;;;;11.18;5.43;;;12.50;99.90;;;;;;4268214;27;20043;-58
2024/01/30 05:11:45;;;;;;;9.68;5.18;;;12.50;99.90;;;;;;4267491;27;20099;-59
2024/01/30 05:13:47;;;;;;;6.32;4.53;;;12.50;99.90;;;;;;4268135;27;20465;-58
2024/01/30 05:15:49;;;;;;;15.45;5.38;;;12.50;99.90;;;;;;4267704;27;20039;-58
2024/01/30 05:17:52;;;;;;;8.80;5.22;;;12.60;99.90;;;;;;4267271;27;20081;-58
2024/01/30 05:19:54;;;;;;;11.82;5.22;;;12.50;99.90;;;;;;4267809;27;20047;-58
2024/01/30 05:21:57;;;;;;;8.98;4.50;;;12.60;99.90;;;;;;4267387;27;20046;-58
2024/01/30 05:23:59;;;;;;;8.77;4.65;;;12.50;99.90;;;;;;4268147;27;20130;-58
2024/01/30 05:26:02;;;;;;;13.52;5.07;;;12.50;99.90;;;;;;4267309;27;20039;-58
2024/01/30 05:28:05;;;;;;;9.38;5.03;;;12.50;99.90;;;;;;4267984;27;20050;-58
2024/01/30 05:30:07;;;;;;;10.70;4.75;;;12.50;99.90;;;;;;4270188;27;20485;-60
2024/01/30 05:32:10;;;;;;;12.93;4.78;;;12.60;99.90;;;;;;4269054;27;20379;-58
2024/01/30 05:34:14;;;;;;;9.35;4.65;;;12.60;99.90;;;;;;4268696;27;20053;-61
2024/01/30 05:36:16;;;;;;;11.57;4.93;;;12.60;99.90;;;;;;4261392;27;20106;-58
2024/01/30 05:38:19;;;;;;;13.13;4.80;;;12.50;99.90;;;;;;4265492;27;20453;-58
2024/01/30 05:40:21;;;;;;;14.38;5.50;;;12.50;99.90;;;;;;4267262;27;20053;-58
2024/01/30 05:42:23;;;;;;;11.02;5.38;;;12.50;99.90;;;;;;4267273;27;20117;-58
2024/01/30 05:44:25;;;;;;;15.27;5.20;;;12.60;99.90;;;;;;4267092;27;20111;-59
2024/01/30 05:46:27;;;;;;;13.85;6.30;;;12.50;99.90;;;;;;4267328;27;20070;-58
2024/01/30 05:48:30;;;;;;;11.10;5.30;;;12.50;99.90;;;;;;4267111;27;20480;-58
2024/01/30 05:50:32;;;;;;;11.77;5.97;;;12.50;99.90;;;;;;4267098;27;20108;-58
2024/01/30 05:52:34;;;;;;;9.20;5.32;;;12.50;99.90;;;;;;4266806;27;20523;-58
2024/01/30 05:54:38;;;;;;;15.38;5.70;;;12.50;99.90;;;;;;4266973;27;20046;-58
2024/01/30 05:56:42;;;;;;;7.80;4.30;;;12.40;99.90;;;;;;4266954;27;20047;-59
2024/01/30 05:58:44;;;;;;;10.90;5.10;;;12.50;99.90;;;;;;4248414;27;20071;-58
2024/01/30 06:00:46;;;;;;;14.13;4.80;;;12.50;99.90;;;;;;4267162;27;20058;-59
2024/01/30 06:02:48;;;;;;;10.80;5.03;;;12.50;99.90;;;;;;4266629;27;20039;-58
2024/01/30 06:04:50;;;;;;;9.18;4.82;;;12.50;99.90;;;;;;4266627;27;20139;-58
2024/01/30 06:06:52;;;;;;;15.93;4.82;;;12.60;99.90;;;;;;4267059;27;20081;-58
2024/01/30 06:08:56;;;;;;;8.88;4.85;;;12.50;99.90;;;;;;4266414;27;20034;-59
2024/01/30 06:11:00;;;;;;;10.68;5.07;;;12.50;99.90;;;;;;4267051;27;20130;-59
2024/01/30 06:13:02;;;;;;;8.82;4.68;;;12.60;99.90;;;;;;4266891;27;20161;-63
2024/01/30 06:15:06;;;;;;;11.65;4.68;;;12.60;99.90;;;;;;4266891;27;20042;-63
2024/01/30 06:17:08;;;;;;;12.57;4.90;;;12.50;99.90;;;;;;4267256;27;20485;-58
2024/01/30 06:19:13;;;;;;;13.80;5.10;;;12.50;99.90;;;;;;4266499;27;20122;-59
2024/01/30 06:21:15;;;;;;;8.77;4.43;;;12.60;99.90;;;;;;4266866;27;20081;-58
2024/01/30 06:23:17;;;;;;;10.35;4.45;;;12.50;99.90;;;;;;4266504;27;20066;-60
2024/01/30 06:25:19;;;;;;;14.43;4.93;;;12.60;99.90;;;;;;4266041;27;20043;-58
2024/01/30 06:27:23;;;;;;;14.35;4.70;;;12.60;99.90;;;;;;4266518;27;20401;-59
2024/01/30 06:29:26;;;;;;;9.65;4.95;;;12.60;99.90;;;;;;4266113;27;20405;-59
2024/01/30 06:31:29;;;;;;;12.82;4.65;;;12.60;99.90;;;;;;4266639;27;20500;-59
2024/01/30 06:33:31;;;;;;;9.10;4.25;;;12.60;99.90;;;;;;4266419;27;20451;-59
2024/01/30 06:35:35;;;;;;;10.48;4.95;;;12.50;99.90;;;;;;4265342;27;20059;-59
2024/01/30 06:37:37;;;;;;;9.57;4.68;;;12.60;99.90;;;;;;4249572;27;20079;-63
2024/01/30 06:39:39;;;;;;;8.23;4.60;;;12.60;99.90;;;;;;4258184;27;20042;-59
2024/01/30 06:41:41;;;;;;;12.70;4.75;;;12.60;99.90;;;;;;4266782;27;20427;-58
2024/01/30 06:43:46;;;;;;;9.23;4.93;;;12.70;99.90;;;;;;4268440;27;20417;-59
2024/01/30 06:45:48;;;;;;;14.38;5.05;;;12.70;99.90;;;;;;4266254;27;20555;-59
2024/01/30 06:47:50;;;;;;;11.20;4.53;;;12.70;99.90;;;;;;4266261;27;20051;-58
2024/01/30 06:49:52;;;;;;;10.15;4.07;;;12.70;99.90;;;;;;4266281;27;20066;-59
2024/01/30 06:51:54;;;;;;;11.05;4.80;;;12.80;99.90;;;;;;4268900;27;20072;-61
2024/01/30 06:53:56;;;;;;;8.27;4.40;;;12.80;99.90;;;;;;4266990;27;20105;-60
2024/01/30 06:55:58;;;;;;;13.18;3.78;;;12.80;99.90;;;;;;4266734;27;20051;-58
2024/01/30 06:58:00;;;;;;;12.27;4.38;;;12.80;99.90;;;;;;4266008;27;20394;-59
2024/01/30 07:00:05;;;;;;;13.00;4.97;;;12.90;99.90;;;;;;4265840;27;20398;-59
2024/01/30 07:02:07;;;;;;;14.88;5.00;;;12.90;99.90;;;;;;4266042;27;20077;-59
2024/01/30 07:04:09;;;;;;;9.73;4.20;;;12.90;99.90;;;;;;4266044;27;20117;-59
2024/01/30 07:06:12;;;;;;;16.73;5.20;;;12.90;99.90;;;;;;4265664;27;20077;-59
2024/01/30 07:08:17;;;;;;;13.95;4.90;;;12.90;99.90;;;;;;4265551;27;20462;-59
2024/01/30 07:10:19;;;;;;;;;;;12.90;99.90;;;;;;4266100;27;20039;-59
2024/01/30 07:12:21;;;;;;;11.88;4.78;;;12.90;99.90;;;;;;4265764;27;20038;-60
2024/01/30 07:14:23;;;;;;;12.30;5.60;;;12.80;99.90;;;;;;4266109;27;20069;-59
2024/01/30 07:16:26;;;;;;;16.33;5.88;;;12.90;99.90;;;;;;4265864;27;20405;-60
2024/01/30 07:18:28;;;;;;;10.85;3.88;;;12.90;99.90;;;;;;4266908;27;20047;-64
2024/01/30 07:20:31;;;;;;;9.00;4.97;;;12.90;99.90;;;;;;4266358;27;20466;-60
2024/01/30 07:22:34;;;;;;;10.55;5.07;;;13.00;99.90;;;;;;4265565;27;20060;-59
2024/01/30 07:24:36;;;;;;;16.88;4.97;;;13.00;99.90;;;;;;4265671;27;20038;-60
2024/01/30 07:26:38;;;;;;;12.27;4.90;;;13.00;99.90;;;;;;4265373;27;20038;-58
2024/01/30 07:28:41;;;;;;;14.05;4.90;;;13.00;99.90;;;;;;4265538;27;20377;-58
2024/01/30 07:30:44;;;;;;;12.80;6.45;;;13.10;99.90;;;;;;4265378;27;20189;-59
2024/01/30 07:32:48;;;;;;;11.13;5.55;;;13.10;99.90;;;;;;4265603;27;20043;-59
2024/01/30 07:34:50;;;;;;;10.98;6.22;;;13.00;99.90;;;;;;4265533;27;20485;-59
2024/01/30 07:37:08;;;;;;;15.05;6.18;;;13.00;99.90;;;;;;4264934;27;20472;-59
2024/01/30 07:39:10;;;;;;;17.10;6.30;;;13.00;99.90;;;;;;4265344;27;20042;-59
2024/01/30 07:41:12;;;;;;;11.55;5.88;;;13.00;99.90;;;;;;4265338;27;20134;-58
2024/01/30 07:43:14;;;;;;;16.10;6.10;;;13.10;99.90;;;;;;4265446;27;20050;-59
2024/01/30 07:45:21;;;;;;;15.98;6.53;;;13.10;99.90;;;;;;4265456;27;20481;-59
2024/01/30 07:47:23;;;;;;;15.60;6.55;;;13.10;99.90;;;;;;4265168;27;20382;-58
2024/01/30 07:49:26;;;;;;;13.68;5.40;;;13.00;99.90;;;;;;4265579;27;20043;-58
2024/01/30 07:51:31;;;;;;;15.52;6.03;;;13.10;99.90;;;;;;4264837;27;20039;-59
2024/01/30 07:53:33;;;;;;;15.50;6.90;;;13.10;99.90;;;;;;4265036;27;20047;-58
2024/01/30 07:55:35;;;;;;;17.35;6.60;;;13.10;99.90;;;;;;4265223;27;20046;-59
2024/01/30 07:57:39;;;;;;;15.52;6.13;;;13.10;99.90;;;;;;4265009;27;20038;-59
2024/01/30 07:59:42;;;;;;;23.85;6.95;;;13.10;99.90;;;;;;4265227;27;20082;-59
2024/01/30 08:01:44;;;;;;;19.42;7.07;;;13.10;99.90;;;;;;4265026;27;20081;-59
2024/01/30 08:03:46;;;;;;;12.90;6.53;;;13.10;99.90;;;;;;4265321;27;20092;-59
2024/01/30 08:05:49;;;;;;;16.70;6.50;;;13.10;99.90;;;;;;4264677;27;20119;-59
2024/01/30 08:07:52;;;;;;;11.85;5.57;;;13.10;99.90;;;;;;4264576;27;20042;-59
2024/01/30 08:09:54;;;;;;;17.08;6.85;;;13.10;99.90;;;;;;4265006;27;20046;-60
2024/01/30 08:11:56;;;;;;;15.75;6.30;;;13.10;99.90;;;;;;4264577;27;20038;-59
2024/01/30 08:13:58;;;;;;;17.52;6.80;;;13.10;99.90;;;;;;4264931;27;20054;-59
2024/01/30 08:16:00;;;;;;;10.73;6.43;;;13.20;99.90;;;;;;4265154;27;20087;-59
2024/01/30 08:18:03;;;;;;;15.75;6.38;;;13.20;99.90;;;;;;4264303;27;20046;-59
2024/01/30 08:20:08;;;;;;;17.60;6.93;;;13.10;99.90;;;;;;4264651;27;20043;-59
2024/01/30 08:22:12;;;;;;;18.23;7.40;;;13.20;99.90;;;;;;4264818;27;20401;-59
2024/01/30 08:24:14;;;;;;;16.83;6.78;;;13.10;99.90;;;;;;4242330;27;20047;-59
2024/01/30 08:26:16;;;;;;;19.05;7.20;;;13.10;99.90;;;;;;4264868;27;20447;-59
2024/01/30 08:28:18;;;;;;;17.05;6.00;;;13.20;99.90;;;;;;4264642;27;20053;-59
2024/01/30 08:30:22;;;;;;;20.55;7.07;;;13.20;99.90;;;;;;4264658;27;20039;-58
2024/01/30 08:32:27;;;;;;;19.45;8.00;;;13.10;99.90;;;;;;4265173;27;20066;-62
2024/01/30 08:34:29;;;;;;;12.05;6.15;;;13.10;99.90;;;;;;4264091;27;20046;-60
2024/01/30 08:36:32;;;;;;;19.05;7.50;;;13.10;99.90;;;;;;4256054;27;20043;-66
2024/01/30 08:38:35;;;;;;;20.48;7.00;;;13.00;99.90;;;;;;4255940;27;20048;-58
2024/01/30 08:40:37;;;;;;;20.42;7.53;;;13.10;99.90;;;;;;4264921;27;20043;-57
2024/01/30 08:42:39;;;;;;;14.50;6.97;;;13.10;99.90;;;;;;4264769;27;20099;-58
2024/01/30 08:44:41;;;;;;;21.52;7.93;;;13.10;99.90;;;;;;4264287;27;20046;-63
2024/01/30 08:46:45;;;;;;;14.80;6.72;;;13.10;99.90;;;;;;4264417;27;20092;-58
2024/01/30 08:48:47;;;;;;;15.25;6.50;;;13.10;99.90;;;;;;4263872;27;20042;-58
2024/01/30 08:50:50;;;;;;;21.02;6.97;;;13.10;99.90;;;;;;4264244;27;20041;-59
2024/01/30 08:52:52;;;;;;;25.90;7.45;;;13.10;99.90;;;;;;4264236;27;20054;-59
2024/01/30 08:54:55;;;;;;;22.52;7.53;;;13.10;99.90;;;;;;4264154;27;20088;-59
2024/01/30 08:56:58;;;;;;;19.17;6.45;;;13.10;99.90;;;;;;4264489;27;20047;-58
2024/01/30 08:59:00;;;;;;;23.40;8.23;;;13.10;99.90;;;;;;4264109;27;20375;-60
2024/01/30 09:01:03;;;;;;;16.75;7.43;;;13.20;99.90;;;;;;4264593;27;20045;-59
2024/01/30 09:03:06;;;;;;;21.15;7.47;;;13.20;99.90;;;;;;4264501;27;20053;-59
2024/01/30 09:05:08;;;;;;;16.73;7.07;;;13.20;99.90;;;;;;4264201;27;20504;-59
2024/01/30 09:07:10;;;;;;;21.00;7.18;;;13.20;99.90;;;;;;4264434;27;20042;-59
2024/01/30 09:09:14;;;;;;;21.65;7.32;;;13.20;99.90;;;;;;4246059;27;20096;-59
2024/01/30 09:11:18;;;;;;;19.35;7.43;;;13.20;99.90;;;;;;4253079;27;20054;-59
2024/01/30 09:13:20;;;;;;;17.80;6.63;;;13.10;99.90;;;;;;4264589;27;20043;-60
2024/01/30 09:15:22;;;;;;;19.70;6.53;;;13.10;99.90;;;;;;4264139;27;20042;-59
2024/01/30 09:17:27;;;;;;;21.45;7.00;;;13.10;99.90;;;;;;4264089;27;20484;-59
2024/01/30 09:19:30;;;;;;;17.60;6.93;;;13.20;99.90;;;;;;4264007;27;20042;-59
2024/01/30 09:21:32;;;;;;;24.92;7.03;;;13.10;99.90;;;;;;4264110;27;20045;-59
2024/01/30 09:23:34;;;;;;;19.65;6.90;;;13.20;99.90;;;;;;4264478;27;20394;-58
2024/01/30 09:25:37;;;;;;;14.63;6.50;;;13.10;99.90;;;;;;4263856;27;20083;-59
2024/01/30 09:27:40;;;;;;;20.77;7.20;;;13.10;99.90;;;;;;4264182;27;20050;-58
2024/01/30 09:29:42;;;;;;;20.98;7.60;;;13.20;99.90;;;;;;4263968;27;20067;-58
2024/01/30 09:31:47;;;;;;;17.20;6.38;;;13.20;99.90;;;;;;4264366;27;20435;-58
2024/01/30 09:33:53;;;;;;;17.38;7.75;;;13.20;99.90;;;;;;4263645;27;20513;-58
2024/01/30 09:35:56;;;;;;;18.05;6.75;;;13.20;99.90;;;;;;4263740;27;20508;-59
2024/01/30 09:37:58;;;;;;;14.35;6.70;;;13.20;99.90;;;;;;4264207;27;20049;-58
2024/01/30 09:40:00;;;;;;;14.95;6.13;;;13.20;99.90;;;;;;4264211;27;20042;-58
2024/01/30 09:42:08;;;;;;;17.13;6.68;;;13.20;99.90;;;;;;4245323;27;20120;-59
2024/01/30 09:44:12;;;;;;;18.98;5.90;;;13.20;99.90;;;;;;4263994;27;20042;-58
2024/01/30 09:46:16;;;;;;;13.52;5.93;;;13.10;99.90;;;;;;4263905;27;20103;-58
2024/01/30 09:48:19;;;;;;;19.83;6.45;;;13.10;99.90;;;;;;4263540;27;20046;-63
2024/01/30 09:50:21;;;;;;;14.77;6.43;;;13.10;99.90;;;;;;4264831;27;21049;-58
2024/01/30 09:52:23;;;;;;;12.57;6.28;;;13.10;99.90;;;;;;4267306;27;20043;-58
2024/01/30 09:54:25;;;;;;;13.27;6.35;;;13.10;99.90;;;;;;4266947;27;20047;-58
2024/01/30 09:56:27;;;;;;;25.80;7.32;;;13.20;99.90;;;;;;4266758;27;20035;-58
2024/01/30 09:58:29;;;;;;;14.57;6.60;;;13.30;99.90;;;;;;4265665;27;20065;-59
2024/01/30 10:00:32;;;;;;;15.20;6.45;;;13.20;99.90;;;;;;4266784;27;20547;-59
2024/01/30 10:02:35;;;;;;;17.58;6.15;;;13.30;99.90;;;;;;4266524;27;20042;-58
2024/01/30 10:04:37;;;;;;;13.25;6.68;;;13.40;99.90;;;;;;4266975;27;20081;-58
2024/01/30 10:06:41;;;;;;;15.43;6.78;;;13.30;99.90;;;;;;4266734;27;20577;-60
2024/01/30 10:08:43;;;;;;;17.60;6.60;;;13.30;99.90;;;;;;4248911;27;20051;-60
2024/01/30 10:10:46;;;;;;;12.18;6.03;;;13.40;99.90;;;;;;4267187;27;20508;-60
2024/01/30 10:12:49;;;;;;;10.52;5.95;;;13.40;99.90;;;;;;4267065;27;20039;-63
2024/01/30 10:14:51;;;;;;;14.35;5.43;;;13.50;99.90;;;;;;4267034;27;20042;-59
2024/01/30 10:16:55;;;;;;;16.02;6.22;;;13.50;99.90;;;;;;4266237;27;20047;-59
2024/01/30 10:18:57;;;;;;;11.73;6.20;;;13.60;99.90;;;;;;4266859;27;20435;-58
2024/01/30 10:20:59;;;;;;;16.77;5.07;;;13.60;99.90;;;;;;4266934;27;20050;-57
2024/01/30 10:23:02;;;;;;;11.75;4.28;;;13.70;99.90;;;;;;4266752;27;20400;-64
2024/01/30 10:25:05;;;;;;;13.05;4.75;;;13.60;99.90;;;;;;4266562;27;20450;-59
2024/01/30 10:27:08;;;;;;;11.98;5.05;;;13.70;99.90;;;;;;4266274;27;20047;-59
2024/01/30 10:29:10;;;;;;;19.13;5.60;;;13.70;99.90;;;;;;4266485;27;20115;-59
2024/01/30 10:31:16;;;;;;;12.90;4.78;;;13.80;99.90;;;;;;4266506;27;20070;-59